createdAt,value
2018-03-19T00:02:11.285Z,35.97
2018-03-19T00:04:38.921Z,34.00
2018-03-19T00:07:06.589Z,27.10
2018-03-19T00:09:34.441Z,29.57
2018-03-19T00:12:02.121Z,29.50
2018-03-19T00:14:29.857Z,24.03
2018-03-19T00:16:58.666Z,23.50
2018-03-19T00:19:26.466Z,24.73
2018-03-19T00:21:54.069Z,22.87
2018-03-19T00:24:21.651Z,28.77
2018-03-19T00:26:49.223Z,28.43
2018-03-19T00:29:16.968Z,22.33
2018-03-19T00:31:45.073Z,12.83
2018-03-19T00:34:13.470Z,18.10
2018-03-19T00:36:58.589Z,17.67
2018-03-19T00:39:26.425Z,15.53
2018-03-19T00:41:54.320Z,18.03
2018-03-19T00:44:21.969Z,21.30
2018-03-19T00:46:49.697Z,17.97
2018-03-19T00:49:17.307Z,20.40
2018-03-19T00:51:44.961Z,16.10
2018-03-19T00:54:12.677Z,15.17
2018-03-19T00:56:40.466Z,12.13
2018-03-19T00:59:08.183Z,15.20
2018-03-19T01:01:36.513Z,14.90
2018-03-19T01:04:04.276Z,18.43
2018-03-19T01:06:31.997Z,13.40
2018-03-19T01:08:59.709Z,14.77
2018-03-19T01:11:27.542Z,13.60
2018-03-19T01:13:55.338Z,16.87
2018-03-19T01:16:23.226Z,15.17
2018-03-19T01:18:51.045Z,12.33
2018-03-19T01:21:18.737Z,17.47
2018-03-19T01:23:46.694Z,16.13
2018-03-19T01:26:14.254Z,15.60
2018-03-19T01:28:42.122Z,16.10
2018-03-19T01:31:09.990Z,14.93
2018-03-19T01:33:37.589Z,21.17
2018-03-19T01:36:05.176Z,15.57
2018-03-19T01:38:32.912Z,14.73
2018-03-19T01:41:00.631Z,15.70
2018-03-19T01:43:28.471Z,17.73
2018-03-19T01:45:56.154Z,15.43
2018-03-19T01:48:23.812Z,14.23
2018-03-19T01:50:51.395Z,13.63
2018-03-19T01:53:19.188Z,19.40
2018-03-19T01:56:04.502Z,26.13
2018-03-19T01:58:32.081Z,15.50
2018-03-19T02:00:59.728Z,18.60
2018-03-19T02:03:27.639Z,15.90
2018-03-19T02:05:56.027Z,15.87
2018-03-19T02:08:23.726Z,16.60
2018-03-19T02:10:51.602Z,18.00
2018-03-19T02:13:19.268Z,12.53
2018-03-19T02:15:46.813Z,13.77
2018-03-19T02:18:14.637Z,12.30
2018-03-19T02:20:42.397Z,14.37
2018-03-19T02:23:10.257Z,14.87
2018-03-19T02:25:55.434Z,13.93
2018-03-19T02:28:23.112Z,37.60
2018-03-19T02:30:50.854Z,20.17
2018-03-19T02:33:18.766Z,14.50
2018-03-19T02:35:46.436Z,16.00
2018-03-19T02:38:14.004Z,16.30
2018-03-19T02:40:41.754Z,23.07
2018-03-19T02:43:09.425Z,21.57
2018-03-19T02:45:37.050Z,16.20
2018-03-19T02:48:22.361Z,22.43
2018-03-19T02:50:50.025Z,13.37
2018-03-19T02:53:18.092Z,15.00
2018-03-19T02:55:45.803Z,13.10
2018-03-19T02:58:13.785Z,12.20
2018-03-19T03:00:41.569Z,13.00
2018-03-19T03:03:09.517Z,13.87
2018-03-19T03:05:37.152Z,13.07
2018-03-19T03:08:04.867Z,13.27
2018-03-19T03:10:32.780Z,13.23
2018-03-19T03:13:00.598Z,14.73
2018-03-19T03:15:28.355Z,15.13
2018-03-19T03:17:56.174Z,17.40
2018-03-19T03:20:24.196Z,16.43
2018-03-19T03:22:52.114Z,25.97
2018-03-19T03:25:19.971Z,18.57
2018-03-19T03:27:47.795Z,14.50
2018-03-19T03:30:15.436Z,17.10
2018-03-19T03:32:43.285Z,17.53
2018-03-19T03:35:10.845Z,15.93
2018-03-19T03:37:38.591Z,19.60
2018-03-19T03:40:06.181Z,27.77
2018-03-19T03:42:33.958Z,27.27
2018-03-19T03:45:01.510Z,20.00
2018-03-19T03:47:29.513Z,22.93
2018-03-19T03:49:57.965Z,14.23
2018-03-19T03:52:25.557Z,16.07
2018-03-19T03:54:53.137Z,20.67
2018-03-19T03:57:20.884Z,18.53
2018-03-19T03:59:48.758Z,21.27
2018-03-19T04:02:16.509Z,23.87
2018-03-19T04:04:45.140Z,17.77
2018-03-19T04:07:12.966Z,20.03
2018-03-19T04:09:40.550Z,17.37
2018-03-19T04:12:08.203Z,15.87
2018-03-19T04:14:35.801Z,17.43
2018-03-19T04:17:03.409Z,24.10
2018-03-19T04:19:30.982Z,28.70
2018-03-19T04:21:58.923Z,20.47
2018-03-19T04:24:26.503Z,40.90
2018-03-19T04:26:54.057Z,26.17
2018-03-19T04:29:21.626Z,25.50
2018-03-19T04:31:49.674Z,25.80
2018-03-19T04:34:17.338Z,28.53
2018-03-19T04:36:45.357Z,28.80
2018-03-19T04:39:13.605Z,28.33
2018-03-19T04:41:41.236Z,31.27
2018-03-19T04:44:08.949Z,24.27
2018-03-19T04:46:36.801Z,25.13
2018-03-19T04:49:04.357Z,38.83
2018-03-19T04:51:31.914Z,45.83
2018-03-19T04:53:59.836Z,43.67
2018-03-19T04:56:28.225Z,35.33
2018-03-19T04:58:55.798Z,42.37
2018-03-19T05:01:23.810Z,34.80
2018-03-19T05:03:51.491Z,28.30
2018-03-19T05:06:20.007Z,42.80
2018-03-19T05:08:47.674Z,29.50
2018-03-19T05:11:15.306Z,29.27
2018-03-19T05:13:42.945Z,37.23
2018-03-19T05:16:10.790Z,35.63
2018-03-19T05:18:38.459Z,22.10
2018-03-19T05:21:06.282Z,25.67
2018-03-19T05:23:34.183Z,21.63
2018-03-19T05:26:01.753Z,26.80
2018-03-19T05:28:29.313Z,22.53
2018-03-19T05:30:57.020Z,20.00
2018-03-19T05:33:24.599Z,20.03
2018-03-19T05:35:52.485Z,22.23
2018-03-19T05:38:20.077Z,17.87
2018-03-19T05:40:47.959Z,19.67
2018-03-19T05:43:15.516Z,17.37
2018-03-19T05:45:43.551Z,30.57
2018-03-19T05:48:11.235Z,28.03
2018-03-19T05:50:39.559Z,31.73
2018-03-19T05:53:07.533Z,24.57
2018-03-19T05:55:35.207Z,18.57
2018-03-19T05:58:02.764Z,26.40
2018-03-19T06:00:30.426Z,26.93
2018-03-19T06:02:58.055Z,20.27
2018-03-19T06:05:25.793Z,24.70
2018-03-19T06:07:53.381Z,19.63
2018-03-19T06:10:21.181Z,30.47
2018-03-19T06:12:49.066Z,26.60
2018-03-19T06:15:17.518Z,27.70
2018-03-19T06:17:45.238Z,19.33
2018-03-19T06:20:12.820Z,21.53
2018-03-19T06:22:40.781Z,20.47
2018-03-19T06:25:08.609Z,18.83
2018-03-19T06:27:37.003Z,20.83
2018-03-19T06:30:04.630Z,17.00
2018-03-19T06:32:32.365Z,23.50
2018-03-19T06:35:00.034Z,29.13
2018-03-19T06:37:27.983Z,45.67
2018-03-19T06:39:55.552Z,30.97
2018-03-19T06:42:23.400Z,26.80
2018-03-19T06:44:51.002Z,22.40
2018-03-19T06:47:18.562Z,20.83
2018-03-19T06:49:47.244Z,19.93
2018-03-19T06:52:14.857Z,21.57
2018-03-19T06:54:42.406Z,28.57
2018-03-19T06:57:10.422Z,24.07
2018-03-19T06:59:38.259Z,18.87
2018-03-19T07:02:05.959Z,19.63
2018-03-19T07:04:34.282Z,14.90
2018-03-19T07:07:01.885Z,14.90
2018-03-19T07:09:29.429Z,15.03
2018-03-19T07:11:57.003Z,16.37
2018-03-19T07:14:24.628Z,16.07
2018-03-19T07:16:52.276Z,15.17
2018-03-19T07:19:20.174Z,22.37
2018-03-19T07:21:48.047Z,26.23
2018-03-19T07:24:15.599Z,18.87
2018-03-19T07:26:43.439Z,24.10
2018-03-19T07:29:11.197Z,22.57
2018-03-19T07:31:39.238Z,26.63
2018-03-19T07:34:06.789Z,18.20
2018-03-19T07:36:35.149Z,22.30
2018-03-19T07:39:02.702Z,21.30
2018-03-19T07:41:31.181Z,31.63
2018-03-19T07:43:58.794Z,19.50
2018-03-19T07:46:26.513Z,19.53
2018-03-19T07:48:55.118Z,21.37
2018-03-19T07:51:23.033Z,19.67
2018-03-19T07:53:50.644Z,18.67
2018-03-19T07:56:18.502Z,18.57
2018-03-19T07:58:46.098Z,40.63
2018-03-19T08:01:13.853Z,17.33
2018-03-19T08:03:41.429Z,17.17
2018-03-19T08:06:09.630Z,22.13
2018-03-19T08:08:37.273Z,17.40
2018-03-19T08:11:04.885Z,19.97
2018-03-19T08:13:32.473Z,16.37
2018-03-19T08:16:00.026Z,17.10
2018-03-19T08:18:27.585Z,15.53
2018-03-19T08:20:55.166Z,22.60
2018-03-19T08:23:22.719Z,22.73
2018-03-19T08:25:50.285Z,15.83
2018-03-19T08:28:18.361Z,18.33
2018-03-19T08:30:45.914Z,15.57
2018-03-19T08:33:13.851Z,19.90
2018-03-19T08:35:41.476Z,87.00
2018-03-19T08:38:09.081Z,21.00
2018-03-19T08:40:36.645Z,30.33
2018-03-19T08:43:04.249Z,28.03
2018-03-19T08:45:31.794Z,28.93
2018-03-19T08:48:00.158Z,23.57
2018-03-19T08:50:27.785Z,25.60
2018-03-19T08:52:55.523Z,27.03
2018-03-19T08:55:23.239Z,17.93
2018-03-19T08:57:50.894Z,37.10
2018-03-19T09:00:18.451Z,22.47
2018-03-19T09:02:46.002Z,22.53
2018-03-19T09:05:13.853Z,32.03
2018-03-19T09:07:41.409Z,27.77
2018-03-19T09:10:08.978Z,27.33
2018-03-19T09:12:36.584Z,20.27
2018-03-19T09:15:04.147Z,17.77
2018-03-19T09:17:32.547Z,20.03
2018-03-19T09:20:00.802Z,15.33
2018-03-19T09:22:28.353Z,22.00
2018-03-19T09:24:56.951Z,19.57
2018-03-19T09:27:24.541Z,14.87
2018-03-19T09:29:52.473Z,16.53
2018-03-19T09:32:20.070Z,21.03
2018-03-19T09:34:47.901Z,21.73
2018-03-19T09:37:15.450Z,22.97
2018-03-19T09:39:43.180Z,20.60
2018-03-19T09:42:10.758Z,20.17
2018-03-19T09:44:38.443Z,23.33
2018-03-19T09:47:05.997Z,14.80
2018-03-19T09:49:33.650Z,18.07
2018-03-19T09:52:01.967Z,18.13
2018-03-19T09:54:29.697Z,18.17
2018-03-19T09:56:57.590Z,20.30
2018-03-19T09:59:25.965Z,14.67
2018-03-19T10:01:53.766Z,17.77
2018-03-19T10:04:21.419Z,17.03
2018-03-19T10:06:49.087Z,19.60
2018-03-19T10:09:16.634Z,16.50
2018-03-19T10:11:44.595Z,17.43
2018-03-19T10:14:12.469Z,17.00
2018-03-19T10:16:40.102Z,31.93
2018-03-19T10:19:07.699Z,18.20
2018-03-19T10:21:35.254Z,21.73
2018-03-19T10:24:03.084Z,18.73
2018-03-19T10:26:30.913Z,21.37
2018-03-19T10:28:58.487Z,18.17
2018-03-19T10:31:26.298Z,19.07
2018-03-19T10:33:53.886Z,30.37
2018-03-19T10:36:21.441Z,29.47
2018-03-19T10:38:49.754Z,26.20
2018-03-19T10:41:17.337Z,23.90
2018-03-19T10:43:45.226Z,14.10
2018-03-19T10:46:12.770Z,16.10
2018-03-19T10:48:40.364Z,24.47
2018-03-19T10:51:08.683Z,24.20
2018-03-19T10:53:36.240Z,22.00
2018-03-19T10:56:03.828Z,20.30
2018-03-19T10:58:31.542Z,22.67
2018-03-19T11:01:05.366Z,18.93
2018-03-19T11:03:33.073Z,18.70
2018-03-19T11:06:06.456Z,23.60
2018-03-19T11:08:34.818Z,18.43
2018-03-19T11:11:02.542Z,34.73
2018-03-19T11:13:30.133Z,21.03
2018-03-19T11:15:58.050Z,32.13
2018-03-19T11:18:25.983Z,16.27
2018-03-19T11:20:53.577Z,16.80
2018-03-19T11:23:21.250Z,19.17
2018-03-19T11:25:48.798Z,18.30
2018-03-19T11:28:17.278Z,18.10
2018-03-19T11:30:45.863Z,19.80
2018-03-19T11:33:13.546Z,21.00
2018-03-19T11:35:41.164Z,20.07
2018-03-19T11:38:08.906Z,24.37
2018-03-19T11:40:37.257Z,24.50
2018-03-19T11:43:05.034Z,22.73
2018-03-19T11:45:32.603Z,20.13
2018-03-19T11:48:00.154Z,19.93
2018-03-19T11:50:27.766Z,26.17
2018-03-19T11:52:56.279Z,38.47
2018-03-19T11:55:23.858Z,62.63
2018-03-19T11:57:51.455Z,42.93
2018-03-19T12:00:20.107Z,33.93
2018-03-19T12:02:47.681Z,23.40
2018-03-19T12:05:15.630Z,27.40
2018-03-19T12:07:43.618Z,26.83
2018-03-19T12:10:11.935Z,20.83
2018-03-19T12:12:39.677Z,26.40
2018-03-19T12:15:08.059Z,26.80
2018-03-19T12:17:35.645Z,32.97
2018-03-19T12:20:03.234Z,23.07
2018-03-19T12:22:30.790Z,25.40
2018-03-19T12:24:58.393Z,39.43
2018-03-19T12:27:25.982Z,20.67
2018-03-19T12:29:53.835Z,28.97
2018-03-19T12:32:21.403Z,22.20
2018-03-19T12:34:49.601Z,22.17
2018-03-19T12:37:17.159Z,18.73
2018-03-19T12:39:44.716Z,25.40
2018-03-19T12:42:12.365Z,28.70
2018-03-19T12:44:39.914Z,33.93
2018-03-19T12:47:07.646Z,26.73
2018-03-19T12:49:35.230Z,23.93
2018-03-19T12:52:02.778Z,23.53
2018-03-19T12:54:30.322Z,29.73
2018-03-19T12:56:57.981Z,28.13
2018-03-19T12:59:25.527Z,32.43
2018-03-19T13:01:53.334Z,32.33
2018-03-19T13:04:21.138Z,30.43
2018-03-19T13:06:49.051Z,46.10
2018-03-19T13:09:16.607Z,44.23
2018-03-19T13:11:44.195Z,32.97
2018-03-19T13:14:11.757Z,35.13
2018-03-19T13:16:39.431Z,46.93
2018-03-19T13:19:07.026Z,44.80
2018-03-19T13:21:34.578Z,79.67
2018-03-19T13:24:02.147Z,43.77
2018-03-19T13:26:29.741Z,42.57
2018-03-19T13:28:57.393Z,138.07
2018-03-19T13:31:25.255Z,31.13
2018-03-19T13:33:52.843Z,26.70
2018-03-19T13:36:20.787Z,22.83
2018-03-19T13:38:48.451Z,24.27
2018-03-19T13:41:16.282Z,22.70
2018-03-19T13:43:43.992Z,29.43
2018-03-19T13:46:11.718Z,22.77
2018-03-19T13:48:39.304Z,21.60
2018-03-19T13:51:07.094Z,85.37
2018-03-19T13:53:34.657Z,65.33
2018-03-19T13:56:03.023Z,86.23
2018-03-19T13:58:30.579Z,51.30
2018-03-19T14:00:58.144Z,105.90
2018-03-19T14:03:25.843Z,100.90
2018-03-19T14:05:53.402Z,67.17
2018-03-19T14:08:21.077Z,76.10
2018-03-19T14:10:49.068Z,68.03
2018-03-19T14:13:16.711Z,54.20
2018-03-19T14:15:44.544Z,37.83
2018-03-19T14:18:13.370Z,37.87
2018-03-19T14:20:41.251Z,27.87
2018-03-19T14:23:08.819Z,27.17
2018-03-19T14:25:36.782Z,25.30
2018-03-19T14:28:04.449Z,44.93
2018-03-19T14:30:32.165Z,49.10
2018-03-19T14:33:00.194Z,43.30
2018-03-19T14:35:27.756Z,29.80
2018-03-19T14:37:55.505Z,29.37
2018-03-19T14:40:23.447Z,28.63
2018-03-19T14:42:51.045Z,27.83
2018-03-19T14:45:19.400Z,46.70
2018-03-19T14:47:47.535Z,32.53
2018-03-19T14:50:15.467Z,33.30
2018-03-19T14:52:43.933Z,36.23
2018-03-19T14:55:11.944Z,107.57
2018-03-19T14:57:39.867Z,34.10
2018-03-19T15:00:08.248Z,36.07
2018-03-19T15:02:35.856Z,45.60
2018-03-19T15:05:03.671Z,40.23
2018-03-19T15:07:31.249Z,39.50
2018-03-19T15:09:58.966Z,38.10
2018-03-19T15:12:26.879Z,31.07
2018-03-19T15:14:55.249Z,29.77
2018-03-19T15:17:22.992Z,41.03
2018-03-19T15:19:50.653Z,37.50
2018-03-19T15:22:18.689Z,88.47
2018-03-19T15:24:46.285Z,29.50
2018-03-19T15:27:13.874Z,44.20
2018-03-19T15:29:42.366Z,40.57
2018-03-19T15:32:10.461Z,29.23
2018-03-19T15:34:38.227Z,218.50
2018-03-19T15:37:05.809Z,63.13
2018-03-19T15:39:33.625Z,58.40
2018-03-19T15:42:01.190Z,60.57
2018-03-19T15:44:29.066Z,165.20
2018-03-19T15:46:57.245Z,209.80
2018-03-19T15:49:24.973Z,104.23
2018-03-19T15:51:52.658Z,286.27
2018-03-19T15:54:20.428Z,200.03
2018-03-19T15:56:47.999Z,73.90
2018-03-19T15:59:15.839Z,167.43
2018-03-19T16:01:44.146Z,82.73
2018-03-19T16:04:11.982Z,54.00
2018-03-19T16:06:39.862Z,45.07
2018-03-19T16:09:07.481Z,80.90
2018-03-19T16:11:35.176Z,83.07
2018-03-19T16:14:02.837Z,106.07
2018-03-19T16:16:30.703Z,99.40
2018-03-19T16:18:58.678Z,120.70
2018-03-19T16:21:26.435Z,69.97
2018-03-19T16:23:54.135Z,160.30
2018-03-19T16:26:22.383Z,102.10
2018-03-19T16:28:50.029Z,84.67
2018-03-19T16:31:17.955Z,111.97
2018-03-19T16:33:46.341Z,100.50
2018-03-19T16:36:13.912Z,53.77
2018-03-19T16:38:41.785Z,47.03
2018-03-19T16:41:09.756Z,52.30
2018-03-19T16:43:37.634Z,62.17
2018-03-19T16:46:05.302Z,149.63
2018-03-19T16:48:33.017Z,82.50
2018-03-19T16:51:01.639Z,232.87
2018-03-19T16:53:30.119Z,136.13
2018-03-19T16:55:58.205Z,110.00
2018-03-19T16:58:25.890Z,103.83
2018-03-19T17:00:53.820Z,76.40
2018-03-19T17:03:21.631Z,98.40
2018-03-19T17:05:50.147Z,70.13
2018-03-19T17:08:17.982Z,75.50
2018-03-19T17:10:46.775Z,87.17
2018-03-19T17:13:14.534Z,79.97
2018-03-19T17:15:43.161Z,71.67
2018-03-19T17:18:11.068Z,57.57
2018-03-19T17:20:38.921Z,56.23
2018-03-19T17:23:07.693Z,59.43
2018-03-19T17:25:35.883Z,54.37
2018-03-19T17:28:04.148Z,44.27
2018-03-19T17:30:32.459Z,59.27
2018-03-19T17:33:00.694Z,67.57
2018-03-19T17:35:28.746Z,46.70
2018-03-19T17:37:57.224Z,51.17
2018-03-19T17:40:25.193Z,47.93
2018-03-19T17:42:53.280Z,46.93
2018-03-19T17:45:20.925Z,58.03
2018-03-19T17:47:49.162Z,48.60
2018-03-19T17:50:17.055Z,49.27
2018-03-19T17:52:44.801Z,45.80
2018-03-19T17:55:12.895Z,53.37
2018-03-19T17:57:40.623Z,38.07
2018-03-19T18:00:08.946Z,35.07
2018-03-19T18:02:36.747Z,43.73
2018-03-19T18:05:04.307Z,36.07
2018-03-19T18:07:32.576Z,35.00
2018-03-19T18:10:00.211Z,44.53
2018-03-19T18:12:27.775Z,57.63
2018-03-19T18:14:55.648Z,39.03
2018-03-19T18:17:23.576Z,39.33
2018-03-19T18:19:51.171Z,34.43
2018-03-19T18:22:18.911Z,33.67
2018-03-19T18:24:46.496Z,42.23
2018-03-19T18:27:14.087Z,42.60
2018-03-19T18:29:41.706Z,37.67
2018-03-19T18:32:09.278Z,36.60
2018-03-19T18:34:36.836Z,53.00
2018-03-19T18:37:04.783Z,49.57
2018-03-19T18:39:32.535Z,56.53
2018-03-19T18:42:00.270Z,42.37
2018-03-19T18:44:28.059Z,41.87
2018-03-19T18:46:55.906Z,47.10
2018-03-19T18:49:23.538Z,34.17
2018-03-19T18:51:52.068Z,95.60
2018-03-19T18:54:19.627Z,47.03
2018-03-19T18:56:47.524Z,44.63
2018-03-19T18:59:15.656Z,38.40
2018-03-19T19:01:43.729Z,54.13
2018-03-19T19:04:12.318Z,65.53
2018-03-19T19:06:40.309Z,118.57
2018-03-19T19:09:08.287Z,54.87
2018-03-19T19:11:36.313Z,92.23
2018-03-19T19:14:04.412Z,69.70
2018-03-19T19:16:32.327Z,56.50
2018-03-19T19:19:00.208Z,54.03
2018-03-19T19:21:27.979Z,54.47
2018-03-19T19:23:55.679Z,116.87
2018-03-19T19:26:23.348Z,66.30
2018-03-19T19:28:51.213Z,75.17
2018-03-19T19:31:19.083Z,102.30
2018-03-19T19:33:47.769Z,175.70
2018-03-19T19:36:17.131Z,108.80
2018-03-19T19:38:44.733Z,58.77
2018-03-19T19:41:13.193Z,90.13
2018-03-19T19:43:41.072Z,76.37
2018-03-19T19:46:09.956Z,174.70
2018-03-19T19:48:37.627Z,146.87
2018-03-19T19:51:06.129Z,82.40
2018-03-19T19:53:33.981Z,61.33
2018-03-19T19:56:02.339Z,55.03
2018-03-19T19:58:30.952Z,116.60
2018-03-19T20:00:58.735Z,95.10
2018-03-19T20:03:26.811Z,63.87
2018-03-19T20:05:54.625Z,86.63
2018-03-19T20:08:22.329Z,82.27
2018-03-19T20:10:50.410Z,62.00
2018-03-19T20:13:18.615Z,85.27
2018-03-19T20:15:46.272Z,84.37
2018-03-19T20:18:14.414Z,54.17
2018-03-19T20:20:42.392Z,89.97
2018-03-19T20:23:10.566Z,94.83
2018-03-19T20:25:38.231Z,80.57
2018-03-19T20:28:06.098Z,112.77
2018-03-19T20:30:33.992Z,109.50
2018-03-19T20:33:02.868Z,85.17
2018-03-19T20:35:30.905Z,74.30
2018-03-19T20:37:58.503Z,102.10
2018-03-19T20:40:26.231Z,51.23
2018-03-19T20:42:55.550Z,98.17
2018-03-19T20:45:23.957Z,89.57
2018-03-19T20:47:51.938Z,59.93
2018-03-19T20:50:21.577Z,114.27
2018-03-19T20:52:49.734Z,129.70
2018-03-19T20:55:19.012Z,141.33
2018-03-19T20:57:47.760Z,242.47
2018-03-19T21:00:15.678Z,134.37
2018-03-19T21:02:43.417Z,89.07
2018-03-19T21:05:11.842Z,82.83
2018-03-19T21:07:39.504Z,116.97
2018-03-19T21:10:07.375Z,46.03
2018-03-19T21:12:35.257Z,75.63
2018-03-19T21:15:03.510Z,76.27
2018-03-19T21:17:31.398Z,67.53
2018-03-19T21:19:59.110Z,123.60
2018-03-19T21:22:26.690Z,91.03
2018-03-19T21:24:54.594Z,54.30
2018-03-19T21:27:22.812Z,106.00
2018-03-19T21:29:50.614Z,61.93
2018-03-19T21:32:18.823Z,135.40
2018-03-19T21:34:46.848Z,79.40
2018-03-19T21:37:14.616Z,56.03
2018-03-19T21:39:42.232Z,59.93
2018-03-19T21:42:10.677Z,84.53
2018-03-19T21:44:38.763Z,51.80
2018-03-19T21:47:07.255Z,60.63
2018-03-19T21:49:35.717Z,65.77
2018-03-19T21:52:03.381Z,74.17
2018-03-19T21:54:31.031Z,70.97
2018-03-19T21:56:58.688Z,76.80
2018-03-19T21:59:26.356Z,90.57
2018-03-19T22:01:54.323Z,118.17
2018-03-19T22:04:22.083Z,45.53
2018-03-19T22:06:49.644Z,37.20
2018-03-19T22:09:17.353Z,34.30
2018-03-19T22:11:45.131Z,51.10
2018-03-19T22:14:12.689Z,45.53
2018-03-19T22:16:40.244Z,64.20
2018-03-19T22:19:07.895Z,85.07
2018-03-19T22:21:35.894Z,59.33
2018-03-19T22:24:03.462Z,66.80
2018-03-19T22:26:31.208Z,58.20
2018-03-19T22:28:59.350Z,76.73
2018-03-19T22:31:27.369Z,59.93
2018-03-19T22:33:54.964Z,60.23
2018-03-19T22:36:22.643Z,63.23
2018-03-19T22:38:50.210Z,46.53
2018-03-19T22:41:17.792Z,65.30
2018-03-19T22:43:45.490Z,62.57
2018-03-19T22:46:13.855Z,44.17
2018-03-19T22:48:41.822Z,48.63
2018-03-19T22:51:09.626Z,33.90
2018-03-19T22:53:37.185Z,34.90
2018-03-19T22:56:04.788Z,36.20
2018-03-19T22:58:32.438Z,36.63
2018-03-19T23:01:00.009Z,44.60
2018-03-19T23:03:28.074Z,44.17
2018-03-19T23:05:55.629Z,37.10
2018-03-19T23:08:23.505Z,50.60
2018-03-19T23:10:51.108Z,44.03
2018-03-19T23:13:18.653Z,38.33
2018-03-19T23:15:46.973Z,36.97
2018-03-19T23:18:14.813Z,39.63
2018-03-19T23:20:42.625Z,43.97
2018-03-19T23:23:10.192Z,43.33
2018-03-19T23:25:38.123Z,43.40
2018-03-19T23:28:05.681Z,56.90
2018-03-19T23:30:33.487Z,57.33
2018-03-19T23:33:01.370Z,46.00
2018-03-19T23:35:29.969Z,38.27
2018-03-19T23:37:57.662Z,38.47
2018-03-19T23:40:25.267Z,45.67
2018-03-19T23:42:52.953Z,49.90
2018-03-19T23:45:20.501Z,42.67
2018-03-19T23:47:49.141Z,52.87
2018-03-19T23:50:16.718Z,50.37
2018-03-19T23:52:44.634Z,35.60
2018-03-19T23:55:12.307Z,40.70
2018-03-19T23:57:39.977Z,36.60
